sensor_id;sensor_type;location;lat;lon;timestamp;P1;durP1;ratioP1;P2;durP2;ratioP2
19747;SDS011;10032;51.386;12.516;2023-04-06T00:01:24;6.87;;;4.57;;
19747;SDS011;10032;51.386;12.516;2023-04-06T00:03:50;6.63;;;4.70;;
19747;SDS011;10032;51.386;12.516;2023-04-06T00:06:16;6.80;;;4.90;;
19747;SDS011;10032;51.386;12.516;2023-04-06T00:08:41;6.23;;;5.23;;
19747;SDS011;10032;51.386;12.516;2023-04-06T00:11:07;6.30;;;5.10;;
19747;SDS011;10032;51.386;12.516;2023-04-06T00:13:32;9.67;;;5.77;;
19747;SDS011;10032;51.386;12.516;2023-04-06T00:15:58;7.17;;;5.00;;
19747;SDS011;10032;51.386;12.516;2023-04-06T00:18:23;5.63;;;4.20;;
19747;SDS011;10032;51.386;12.516;2023-04-06T00:20:49;6.17;;;4.47;;
19747;SDS011;10032;51.386;12.516;2023-04-06T00:23:16;5.33;;;4.10;;
19747;SDS011;10032;51.386;12.516;2023-04-06T00:25:41;5.83;;;4.10;;
19747;SDS011;10032;51.386;12.516;2023-04-06T00:28:07;5.97;;;4.57;;
19747;SDS011;10032;51.386;12.516;2023-04-06T00:30:32;6.27;;;4.53;;
19747;SDS011;10032;51.386;12.516;2023-04-06T00:32:58;6.37;;;4.13;;
19747;SDS011;10032;51.386;12.516;2023-04-06T00:35:23;7.03;;;5.17;;
19747;SDS011;10032;51.386;12.516;2023-04-06T00:37:48;6.70;;;4.57;;
19747;SDS011;10032;51.386;12.516;2023-04-06T00:40:14;7.17;;;4.60;;
19747;SDS011;10032;51.386;12.516;2023-04-06T00:42:40;6.83;;;4.87;;
19747;SDS011;10032;51.386;12.516;2023-04-06T00:45:06;6.30;;;4.33;;
19747;SDS011;10032;51.386;12.516;2023-04-06T00:47:32;9.70;;;5.53;;
19747;SDS011;10032;51.386;12.516;2023-04-06T00:49:58;7.07;;;5.13;;
19747;SDS011;10032;51.386;12.516;2023-04-06T00:52:24;5.53;;;4.33;;
19747;SDS011;10032;51.386;12.516;2023-04-06T00:54:50;4.97;;;4.37;;
19747;SDS011;10032;51.386;12.516;2023-04-06T00:57:15;8.27;;;4.43;;
19747;SDS011;10032;51.386;12.516;2023-04-06T00:59:41;8.20;;;5.20;;
19747;SDS011;10032;51.386;12.516;2023-04-06T01:02:07;8.23;;;5.73;;
19747;SDS011;10032;51.386;12.516;2023-04-06T01:04:33;6.30;;;4.93;;
19747;SDS011;10032;51.386;12.516;2023-04-06T01:06:59;7.70;;;5.23;;
19747;SDS011;10032;51.386;12.516;2023-04-06T01:09:24;9.03;;;5.40;;
19747;SDS011;10032;51.386;12.516;2023-04-06T01:11:52;7.40;;;4.90;;
19747;SDS011;10032;51.386;12.516;2023-04-06T01:14:17;7.43;;;5.20;;
19747;SDS011;10032;51.386;12.516;2023-04-06T01:16:43;6.07;;;5.40;;
19747;SDS011;10032;51.386;12.516;2023-04-06T01:19:09;6.33;;;5.23;;
19747;SDS011;10032;51.386;12.516;2023-04-06T01:21:35;7.17;;;4.90;;
19747;SDS011;10032;51.386;12.516;2023-04-06T01:24:02;7.03;;;5.73;;
19747;SDS011;10032;51.386;12.516;2023-04-06T01:26:27;8.53;;;5.63;;
19747;SDS011;10032;51.386;12.516;2023-04-06T01:28:54;6.07;;;5.17;;
19747;SDS011;10032;51.386;12.516;2023-04-06T01:31:20;6.63;;;5.20;;
19747;SDS011;10032;51.386;12.516;2023-04-06T01:33:46;6.90;;;5.33;;
19747;SDS011;10032;51.386;12.516;2023-04-06T01:36:12;5.27;;;4.63;;
19747;SDS011;10032;51.386;12.516;2023-04-06T01:38:37;7.17;;;5.60;;
19747;SDS011;10032;51.386;12.516;2023-04-06T01:41:03;8.97;;;5.90;;
19747;SDS011;10032;51.386;12.516;2023-04-06T01:43:28;7.77;;;5.20;;
19747;SDS011;10032;51.386;12.516;2023-04-06T01:45:54;6.87;;;5.40;;
19747;SDS011;10032;51.386;12.516;2023-04-06T01:48:20;5.93;;;5.20;;
19747;SDS011;10032;51.386;12.516;2023-04-06T01:50:45;6.83;;;5.20;;
19747;SDS011;10032;51.386;12.516;2023-04-06T01:53:11;9.00;;;5.10;;
19747;SDS011;10032;51.386;12.516;2023-04-06T01:55:37;8.93;;;5.53;;
19747;SDS011;10032;51.386;12.516;2023-04-06T01:58:02;8.67;;;5.47;;
19747;SDS011;10032;51.386;12.516;2023-04-06T02:00:28;7.10;;;4.97;;
19747;SDS011;10032;51.386;12.516;2023-04-06T02:02:53;8.77;;;5.40;;
19747;SDS011;10032;51.386;12.516;2023-04-06T02:05:19;8.30;;;5.43;;
19747;SDS011;10032;51.386;12.516;2023-04-06T02:07:45;7.90;;;5.20;;
19747;SDS011;10032;51.386;12.516;2023-04-06T02:10:11;7.03;;;5.13;;
19747;SDS011;10032;51.386;12.516;2023-04-06T02:12:38;7.83;;;5.30;;
19747;SDS011;10032;51.386;12.516;2023-04-06T02:15:04;5.97;;;5.30;;
19747;SDS011;10032;51.386;12.516;2023-04-06T02:17:29;7.80;;;5.67;;
19747;SDS011;10032;51.386;12.516;2023-04-06T02:19:55;6.77;;;5.50;;
19747;SDS011;10032;51.386;12.516;2023-04-06T02:22:21;6.53;;;5.43;;
19747;SDS011;10032;51.386;12.516;2023-04-06T02:24:46;7.47;;;4.90;;
19747;SDS011;10032;51.386;12.516;2023-04-06T02:27:12;7.73;;;5.00;;
19747;SDS011;10032;51.386;12.516;2023-04-06T02:29:38;8.37;;;5.73;;
19747;SDS011;10032;51.386;12.516;2023-04-06T02:32:04;8.27;;;6.10;;
19747;SDS011;10032;51.386;12.516;2023-04-06T02:34:30;7.20;;;5.10;;
19747;SDS011;10032;51.386;12.516;2023-04-06T02:36:55;7.50;;;5.70;;
19747;SDS011;10032;51.386;12.516;2023-04-06T02:39:21;7.80;;;6.00;;
19747;SDS011;10032;51.386;12.516;2023-04-06T02:41:46;6.70;;;5.10;;
19747;SDS011;10032;51.386;12.516;2023-04-06T02:44:11;8.03;;;5.50;;
19747;SDS011;10032;51.386;12.516;2023-04-06T02:46:37;8.00;;;5.60;;
19747;SDS011;10032;51.386;12.516;2023-04-06T02:49:02;6.43;;;5.53;;
19747;SDS011;10032;51.386;12.516;2023-04-06T02:51:28;7.10;;;5.30;;
19747;SDS011;10032;51.386;12.516;2023-04-06T02:53:53;10.37;;;5.87;;
19747;SDS011;10032;51.386;12.516;2023-04-06T02:56:19;7.87;;;5.70;;
19747;SDS011;10032;51.386;12.516;2023-04-06T02:58:46;6.60;;;5.50;;
19747;SDS011;10032;51.386;12.516;2023-04-06T03:01:12;8.00;;;6.27;;
19747;SDS011;10032;51.386;12.516;2023-04-06T03:03:37;9.23;;;5.27;;
19747;SDS011;10032;51.386;12.516;2023-04-06T03:06:03;6.87;;;5.40;;
19747;SDS011;10032;51.386;12.516;2023-04-06T03:08:28;6.60;;;5.67;;
19747;SDS011;10032;51.386;12.516;2023-04-06T03:10:54;7.50;;;5.20;;
19747;SDS011;10032;51.386;12.516;2023-04-06T03:13:20;5.57;;;5.07;;
19747;SDS011;10032;51.386;12.516;2023-04-06T03:15:45;7.40;;;5.90;;
19747;SDS011;10032;51.386;12.516;2023-04-06T03:18:11;9.07;;;5.60;;
19747;SDS011;10032;51.386;12.516;2023-04-06T03:20:36;7.13;;;5.60;;
19747;SDS011;10032;51.386;12.516;2023-04-06T03:23:02;7.23;;;5.47;;
19747;SDS011;10032;51.386;12.516;2023-04-06T03:25:27;5.90;;;4.97;;
19747;SDS011;10032;51.386;12.516;2023-04-06T03:27:55;8.60;;;5.17;;
19747;SDS011;10032;51.386;12.516;2023-04-06T03:30:20;6.00;;;5.20;;
19747;SDS011;10032;51.386;12.516;2023-04-06T03:32:46;5.37;;;4.70;;
19747;SDS011;10032;51.386;12.516;2023-04-06T03:35:11;5.60;;;5.00;;
19747;SDS011;10032;51.386;12.516;2023-04-06T03:37:37;8.50;;;5.57;;
19747;SDS011;10032;51.386;12.516;2023-04-06T03:40:03;7.13;;;5.10;;
19747;SDS011;10032;51.386;12.516;2023-04-06T03:42:29;8.30;;;5.30;;
19747;SDS011;10032;51.386;12.516;2023-04-06T03:44:56;9.37;;;5.47;;
19747;SDS011;10032;51.386;12.516;2023-04-06T03:47:21;9.17;;;5.53;;
19747;SDS011;10032;51.386;12.516;2023-04-06T03:49:46;6.60;;;4.80;;
19747;SDS011;10032;51.386;12.516;2023-04-06T03:52:12;8.33;;;6.00;;
19747;SDS011;10032;51.386;12.516;2023-04-06T03:54:37;6.20;;;5.13;;
19747;SDS011;10032;51.386;12.516;2023-04-06T03:57:03;6.70;;;5.40;;
19747;SDS011;10032;51.386;12.516;2023-04-06T03:59:29;8.53;;;5.50;;
19747;SDS011;10032;51.386;12.516;2023-04-06T04:01:55;12.60;;;4.87;;
19747;SDS011;10032;51.386;12.516;2023-04-06T04:04:20;6.90;;;5.17;;
19747;SDS011;10032;51.386;12.516;2023-04-06T04:06:46;6.60;;;5.53;;
19747;SDS011;10032;51.386;12.516;2023-04-06T04:09:11;8.70;;;5.60;;
19747;SDS011;10032;51.386;12.516;2023-04-06T04:11:37;6.23;;;4.97;;
19747;SDS011;10032;51.386;12.516;2023-04-06T04:14:02;11.30;;;6.33;;
19747;SDS011;10032;51.386;12.516;2023-04-06T04:16:28;7.80;;;5.83;;
19747;SDS011;10032;51.386;12.516;2023-04-06T04:18:54;6.43;;;5.40;;
19747;SDS011;10032;51.386;12.516;2023-04-06T04:21:20;7.73;;;5.60;;
19747;SDS011;10032;51.386;12.516;2023-04-06T04:23:45;7.13;;;4.77;;
19747;SDS011;10032;51.386;12.516;2023-04-06T04:26:11;9.03;;;5.50;;
19747;SDS011;10032;51.386;12.516;2023-04-06T04:28:36;5.73;;;5.13;;
19747;SDS011;10032;51.386;12.516;2023-04-06T04:31:02;6.63;;;5.40;;
19747;SDS011;10032;51.386;12.516;2023-04-06T04:33:27;8.47;;;5.77;;
19747;SDS011;10032;51.386;12.516;2023-04-06T04:35:53;12.23;;;5.87;;
19747;SDS011;10032;51.386;12.516;2023-04-06T04:38:18;6.97;;;5.70;;
19747;SDS011;10032;51.386;12.516;2023-04-06T04:40:44;9.83;;;5.47;;
19747;SDS011;10032;51.386;12.516;2023-04-06T04:43:10;10.97;;;6.13;;
19747;SDS011;10032;51.386;12.516;2023-04-06T04:45:35;6.07;;;5.47;;
19747;SDS011;10032;51.386;12.516;2023-04-06T04:48:01;6.53;;;5.50;;
19747;SDS011;10032;51.386;12.516;2023-04-06T04:50:26;8.13;;;5.47;;
19747;SDS011;10032;51.386;12.516;2023-04-06T04:52:52;6.43;;;5.67;;
19747;SDS011;10032;51.386;12.516;2023-04-06T04:55:17;10.30;;;6.93;;
19747;SDS011;10032;51.386;12.516;2023-04-06T04:57:43;8.60;;;5.87;;
19747;SDS011;10032;51.386;12.516;2023-04-06T05:00:09;8.10;;;5.87;;
19747;SDS011;10032;51.386;12.516;2023-04-06T05:02:35;6.83;;;6.03;;
19747;SDS011;10032;51.386;12.516;2023-04-06T05:05:00;7.83;;;6.00;;
19747;SDS011;10032;51.386;12.516;2023-04-06T05:07:26;8.13;;;5.90;;
19747;SDS011;10032;51.386;12.516;2023-04-06T05:09:51;7.80;;;6.40;;
19747;SDS011;10032;51.386;12.516;2023-04-06T05:12:18;8.40;;;6.33;;
19747;SDS011;10032;51.386;12.516;2023-04-06T05:14:44;7.97;;;5.93;;
19747;SDS011;10032;51.386;12.516;2023-04-06T05:17:09;11.53;;;7.07;;
19747;SDS011;10032;51.386;12.516;2023-04-06T05:19:35;7.17;;;5.93;;
19747;SDS011;10032;51.386;12.516;2023-04-06T05:22:00;7.77;;;6.20;;
19747;SDS011;10032;51.386;12.516;2023-04-06T05:24:26;9.47;;;6.77;;
19747;SDS011;10032;51.386;12.516;2023-04-06T05:26:51;10.13;;;6.07;;
19747;SDS011;10032;51.386;12.516;2023-04-06T05:29:17;9.50;;;6.10;;
19747;SDS011;10032;51.386;12.516;2023-04-06T05:31:44;8.97;;;6.20;;
19747;SDS011;10032;51.386;12.516;2023-04-06T05:34:09;9.57;;;6.10;;
19747;SDS011;10032;51.386;12.516;2023-04-06T05:36:35;7.33;;;6.37;;
19747;SDS011;10032;51.386;12.516;2023-04-06T05:39:00;8.37;;;7.03;;
19747;SDS011;10032;51.386;12.516;2023-04-06T05:41:26;7.27;;;6.07;;
19747;SDS011;10032;51.386;12.516;2023-04-06T05:43:52;7.17;;;6.37;;
19747;SDS011;10032;51.386;12.516;2023-04-06T05:46:17;8.93;;;6.33;;
19747;SDS011;10032;51.386;12.516;2023-04-06T05:48:43;10.47;;;6.83;;
19747;SDS011;10032;51.386;12.516;2023-04-06T05:51:10;10.60;;;6.73;;
19747;SDS011;10032;51.386;12.516;2023-04-06T05:53:35;9.13;;;6.20;;
19747;SDS011;10032;51.386;12.516;2023-04-06T05:56:01;8.83;;;7.03;;
19747;SDS011;10032;51.386;12.516;2023-04-06T05:58:27;8.33;;;6.67;;
19747;SDS011;10032;51.386;12.516;2023-04-06T06:00:59;8.77;;;6.57;;
19747;SDS011;10032;51.386;12.516;2023-04-06T06:03:25;7.80;;;6.30;;
19747;SDS011;10032;51.386;12.516;2023-04-06T06:05:51;8.63;;;6.63;;
19747;SDS011;10032;51.386;12.516;2023-04-06T06:08:17;9.70;;;7.07;;
19747;SDS011;10032;51.386;12.516;2023-04-06T06:10:42;11.67;;;7.27;;
19747;SDS011;10032;51.386;12.516;2023-04-06T06:13:08;9.87;;;7.37;;
19747;SDS011;10032;51.386;12.516;2023-04-06T06:15:33;9.47;;;7.10;;
19747;SDS011;10032;51.386;12.516;2023-04-06T06:17:59;10.90;;;6.60;;
19747;SDS011;10032;51.386;12.516;2023-04-06T06:20:25;10.23;;;7.37;;
19747;SDS011;10032;51.386;12.516;2023-04-06T06:22:51;9.33;;;6.17;;
19747;SDS011;10032;51.386;12.516;2023-04-06T06:25:17;8.50;;;6.20;;
19747;SDS011;10032;51.386;12.516;2023-04-06T06:27:42;7.83;;;6.30;;
19747;SDS011;10032;51.386;12.516;2023-04-06T06:30:08;7.77;;;6.37;;
19747;SDS011;10032;51.386;12.516;2023-04-06T06:32:34;7.87;;;5.70;;
19747;SDS011;10032;51.386;12.516;2023-04-06T06:34:59;9.13;;;7.03;;
19747;SDS011;10032;51.386;12.516;2023-04-06T06:37:25;8.50;;;6.17;;
19747;SDS011;10032;51.386;12.516;2023-04-06T06:39:50;7.90;;;6.33;;
19747;SDS011;10032;51.386;12.516;2023-04-06T06:42:16;8.60;;;5.97;;
19747;SDS011;10032;51.386;12.516;2023-04-06T06:44:42;7.93;;;5.40;;
19747;SDS011;10032;51.386;12.516;2023-04-06T06:47:07;6.77;;;5.00;;
19747;SDS011;10032;51.386;12.516;2023-04-06T06:49:32;6.97;;;5.37;;
19747;SDS011;10032;51.386;12.516;2023-04-06T06:51:58;7.13;;;5.30;;
19747;SDS011;10032;51.386;12.516;2023-04-06T06:54:23;6.93;;;5.73;;
19747;SDS011;10032;51.386;12.516;2023-04-06T06:56:49;5.77;;;5.00;;
19747;SDS011;10032;51.386;12.516;2023-04-06T06:59:14;7.20;;;5.50;;
19747;SDS011;10032;51.386;12.516;2023-04-06T07:01:41;7.30;;;5.50;;
19747;SDS011;10032;51.386;12.516;2023-04-06T07:04:06;6.70;;;5.30;;
19747;SDS011;10032;51.386;12.516;2023-04-06T07:06:34;6.63;;;5.17;;
19747;SDS011;10032;51.386;12.516;2023-04-06T07:09:01;6.40;;;5.23;;
19747;SDS011;10032;51.386;12.516;2023-04-06T07:11:28;6.07;;;4.93;;
19747;SDS011;10032;51.386;12.516;2023-04-06T07:13:54;7.77;;;5.10;;
19747;SDS011;10032;51.386;12.516;2023-04-06T07:16:20;7.43;;;4.70;;
19747;SDS011;10032;51.386;12.516;2023-04-06T07:18:45;6.93;;;5.10;;
19747;SDS011;10032;51.386;12.516;2023-04-06T07:21:11;8.57;;;5.47;;
19747;SDS011;10032;51.386;12.516;2023-04-06T07:23:37;6.07;;;5.00;;
19747;SDS011;10032;51.386;12.516;2023-04-06T07:26:03;6.73;;;4.53;;
19747;SDS011;10032;51.386;12.516;2023-04-06T07:28:28;7.57;;;5.77;;
19747;SDS011;10032;51.386;12.516;2023-04-06T07:30:54;6.63;;;5.70;;
19747;SDS011;10032;51.386;12.516;2023-04-06T07:33:19;6.57;;;4.90;;
19747;SDS011;10032;51.386;12.516;2023-04-06T07:35:45;7.67;;;5.30;;
19747;SDS011;10032;51.386;12.516;2023-04-06T07:38:11;5.63;;;4.93;;
19747;SDS011;10032;51.386;12.516;2023-04-06T07:40:36;7.23;;;5.33;;
19747;SDS011;10032;51.386;12.516;2023-04-06T07:43:02;7.63;;;4.73;;
19747;SDS011;10032;51.386;12.516;2023-04-06T07:45:28;7.47;;;4.90;;
19747;SDS011;10032;51.386;12.516;2023-04-06T07:47:53;6.73;;;4.50;;
19747;SDS011;10032;51.386;12.516;2023-04-06T07:50:19;6.97;;;4.77;;
19747;SDS011;10032;51.386;12.516;2023-04-06T07:52:45;5.63;;;5.10;;
19747;SDS011;10032;51.386;12.516;2023-04-06T07:55:10;11.23;;;5.33;;
19747;SDS011;10032;51.386;12.516;2023-04-06T07:57:36;6.13;;;4.73;;
19747;SDS011;10032;51.386;12.516;2023-04-06T08:00:01;9.03;;;4.83;;
19747;SDS011;10032;51.386;12.516;2023-04-06T08:02:28;6.83;;;5.20;;
19747;SDS011;10032;51.386;12.516;2023-04-06T08:04:54;7.67;;;4.80;;
19747;SDS011;10032;51.386;12.516;2023-04-06T08:07:20;6.77;;;4.97;;
19747;SDS011;10032;51.386;12.516;2023-04-06T08:09:45;7.77;;;5.00;;
19747;SDS011;10032;51.386;12.516;2023-04-06T08:12:11;5.90;;;5.03;;
19747;SDS011;10032;51.386;12.516;2023-04-06T08:14:36;4.80;;;4.30;;
19747;SDS011;10032;51.386;12.516;2023-04-06T08:17:02;6.03;;;4.70;;
19747;SDS011;10032;51.386;12.516;2023-04-06T08:19:27;7.30;;;4.80;;
19747;SDS011;10032;51.386;12.516;2023-04-06T08:21:53;7.53;;;5.00;;
19747;SDS011;10032;51.386;12.516;2023-04-06T08:24:18;5.87;;;4.80;;
19747;SDS011;10032;51.386;12.516;2023-04-06T08:26:43;9.33;;;5.77;;
19747;SDS011;10032;51.386;12.516;2023-04-06T08:29:09;6.10;;;5.00;;
19747;SDS011;10032;51.386;12.516;2023-04-06T08:31:35;7.23;;;4.97;;
19747;SDS011;10032;51.386;12.516;2023-04-06T08:34:01;6.47;;;5.20;;
19747;SDS011;10032;51.386;12.516;2023-04-06T08:36:28;5.37;;;4.87;;
19747;SDS011;10032;51.386;12.516;2023-04-06T08:38:54;5.47;;;4.73;;
19747;SDS011;10032;51.386;12.516;2023-04-06T08:41:19;8.87;;;5.57;;
19747;SDS011;10032;51.386;12.516;2023-04-06T08:43:49;7.73;;;5.57;;
19747;SDS011;10032;51.386;12.516;2023-04-06T08:46:21;5.83;;;4.83;;
19747;SDS011;10032;51.386;12.516;2023-04-06T08:48:48;5.43;;;4.60;;
19747;SDS011;10032;51.386;12.516;2023-04-06T08:51:15;5.53;;;4.90;;
19747;SDS011;10032;51.386;12.516;2023-04-06T08:53:40;6.97;;;4.60;;
19747;SDS011;10032;51.386;12.516;2023-04-06T08:56:06;7.83;;;5.67;;
19747;SDS011;10032;51.386;12.516;2023-04-06T08:58:34;6.07;;;5.17;;
19747;SDS011;10032;51.386;12.516;2023-04-06T09:01:02;6.70;;;5.03;;
19747;SDS011;10032;51.386;12.516;2023-04-06T09:03:32;7.63;;;4.63;;
19747;SDS011;10032;51.386;12.516;2023-04-06T09:06:03;6.00;;;4.83;;
19747;SDS011;10032;51.386;12.516;2023-04-06T09:08:29;6.17;;;4.97;;
19747;SDS011;10032;51.386;12.516;2023-04-06T09:10:55;7.63;;;5.03;;
19747;SDS011;10032;51.386;12.516;2023-04-06T09:13:21;6.87;;;5.07;;
19747;SDS011;10032;51.386;12.516;2023-04-06T09:15:46;6.80;;;5.07;;
19747;SDS011;10032;51.386;12.516;2023-04-06T09:18:11;8.43;;;5.03;;
19747;SDS011;10032;51.386;12.516;2023-04-06T09:20:37;5.67;;;4.40;;
19747;SDS011;10032;51.386;12.516;2023-04-06T09:23:02;7.40;;;5.77;;
19747;SDS011;10032;51.386;12.516;2023-04-06T09:25:28;6.83;;;5.23;;
19747;SDS011;10032;51.386;12.516;2023-04-06T09:28:04;6.30;;;4.70;;
19747;SDS011;10032;51.386;12.516;2023-04-06T09:30:32;8.50;;;5.33;;
19747;SDS011;10032;51.386;12.516;2023-04-06T09:32:57;6.70;;;5.73;;
19747;SDS011;10032;51.386;12.516;2023-04-06T09:35:24;8.53;;;7.27;;
19747;SDS011;10032;51.386;12.516;2023-04-06T09:37:52;5.87;;;5.00;;
19747;SDS011;10032;51.386;12.516;2023-04-06T09:40:19;6.00;;;5.17;;
19747;SDS011;10032;51.386;12.516;2023-04-06T09:42:46;6.23;;;4.70;;
19747;SDS011;10032;51.386;12.516;2023-04-06T09:45:12;5.87;;;4.20;;
19747;SDS011;10032;51.386;12.516;2023-04-06T09:47:39;5.63;;;4.73;;
19747;SDS011;10032;51.386;12.516;2023-04-06T09:50:07;6.87;;;4.27;;
19747;SDS011;10032;51.386;12.516;2023-04-06T09:52:56;5.37;;;4.30;;
19747;SDS011;10032;51.386;12.516;2023-04-06T09:55:26;6.63;;;4.10;;
19747;SDS011;10032;51.386;12.516;2023-04-06T10:00:32;4.63;;;3.83;;
19747;SDS011;10032;51.386;12.516;2023-04-06T10:03:14;5.13;;;4.13;;
19747;SDS011;10032;51.386;12.516;2023-04-06T10:05:53;6.32;;;4.00;;
19747;SDS011;10032;51.386;12.516;2023-04-06T10:08:24;5.18;;;3.78;;
19747;SDS011;10032;51.386;12.516;2023-04-06T10:10:53;4.80;;;4.27;;
19747;SDS011;10032;51.386;12.516;2023-04-06T10:13:19;7.80;;;4.40;;
19747;SDS011;10032;51.386;12.516;2023-04-06T10:15:45;7.50;;;4.95;;
19747;SDS011;10032;51.386;12.516;2023-04-06T10:18:11;7.20;;;4.32;;
19747;SDS011;10032;51.386;12.516;2023-04-06T10:23:24;4.68;;;3.97;;
19747;SDS011;10032;51.386;12.516;2023-04-06T10:25:57;6.22;;;4.18;;
19747;SDS011;10032;51.386;12.516;2023-04-06T10:28:24;4.80;;;4.32;;
19747;SDS011;10032;51.386;12.516;2023-04-06T10:30:56;6.38;;;3.50;;
19747;SDS011;10032;51.386;12.516;2023-04-06T10:33:22;6.40;;;4.50;;
19747;SDS011;10032;51.386;12.516;2023-04-06T10:35:48;4.65;;;4.15;;
19747;SDS011;10032;51.386;12.516;2023-04-06T10:38:14;4.75;;;4.18;;
19747;SDS011;10032;51.386;12.516;2023-04-06T10:40:40;7.70;;;6.10;;
19747;SDS011;10032;51.386;12.516;2023-04-06T10:43:19;4.68;;;4.28;;
19747;SDS011;10032;51.386;12.516;2023-04-06T10:45:52;7.80;;;5.20;;
19747;SDS011;10032;51.386;12.516;2023-04-06T10:48:20;11.75;;;10.50;;
19747;SDS011;10032;51.386;12.516;2023-04-06T10:50:47;6.72;;;5.63;;
19747;SDS011;10032;51.386;12.516;2023-04-06T10:53:26;6.57;;;4.88;;
19747;SDS011;10032;51.386;12.516;2023-04-06T10:55:54;6.53;;;5.85;;
19747;SDS011;10032;51.386;12.516;2023-04-06T10:58:24;7.53;;;5.25;;
19747;SDS011;10032;51.386;12.516;2023-04-06T11:00:50;5.72;;;4.70;;
19747;SDS011;10032;51.386;12.516;2023-04-06T11:03:16;5.97;;;4.05;;
19747;SDS011;10032;51.386;12.516;2023-04-06T11:05:46;6.00;;;4.43;;
19747;SDS011;10032;51.386;12.516;2023-04-06T11:08:23;6.00;;;4.93;;
19747;SDS011;10032;51.386;12.516;2023-04-06T11:11:03;5.15;;;4.65;;
19747;SDS011;10032;51.386;12.516;2023-04-06T11:13:40;5.75;;;4.50;;
19747;SDS011;10032;51.386;12.516;2023-04-06T11:16:06;5.55;;;4.65;;
19747;SDS011;10032;51.386;12.516;2023-04-06T11:18:36;9.73;;;5.15;;
19747;SDS011;10032;51.386;12.516;2023-04-06T11:21:02;6.03;;;5.07;;
19747;SDS011;10032;51.386;12.516;2023-04-06T11:23:28;4.80;;;3.83;;
19747;SDS011;10032;51.386;12.516;2023-04-06T11:25:53;4.90;;;4.35;;
19747;SDS011;10032;51.386;12.516;2023-04-06T11:28:19;5.38;;;4.57;;
19747;SDS011;10032;51.386;12.516;2023-04-06T11:30:46;4.68;;;4.28;;
19747;SDS011;10032;51.386;12.516;2023-04-06T11:33:19;6.28;;;4.75;;
19747;SDS011;10032;51.386;12.516;2023-04-06T11:35:46;4.55;;;4.13;;
19747;SDS011;10032;51.386;12.516;2023-04-06T11:38:11;5.90;;;4.53;;
19747;SDS011;10032;51.386;12.516;2023-04-06T11:40:37;6.20;;;4.90;;
19747;SDS011;10032;51.386;12.516;2023-04-06T11:43:03;4.60;;;4.20;;
19747;SDS011;10032;51.386;12.516;2023-04-06T11:45:38;4.80;;;4.30;;
19747;SDS011;10032;51.386;12.516;2023-04-06T11:48:04;5.35;;;4.22;;
19747;SDS011;10032;51.386;12.516;2023-04-06T11:50:33;4.75;;;4.35;;
19747;SDS011;10032;51.386;12.516;2023-04-06T11:53:00;4.75;;;4.30;;
19747;SDS011;10032;51.386;12.516;2023-04-06T11:55:27;5.32;;;4.35;;
19747;SDS011;10032;51.386;12.516;2023-04-06T11:57:53;5.28;;;4.57;;
19747;SDS011;10032;51.386;12.516;2023-04-06T12:00:20;5.20;;;4.70;;
19747;SDS011;10032;51.386;12.516;2023-04-06T12:02:46;6.22;;;4.75;;
19747;SDS011;10032;51.386;12.516;2023-04-06T12:05:13;5.50;;;5.00;;
19747;SDS011;10032;51.386;12.516;2023-04-06T12:07:38;4.47;;;4.07;;
19747;SDS011;10032;51.386;12.516;2023-04-06T12:10:04;5.78;;;4.30;;
19747;SDS011;10032;51.386;12.516;2023-04-06T12:12:30;6.28;;;5.22;;
19747;SDS011;10032;51.386;12.516;2023-04-06T12:14:56;4.82;;;4.32;;
19747;SDS011;10032;51.386;12.516;2023-04-06T12:17:22;6.45;;;4.53;;
19747;SDS011;10032;51.386;12.516;2023-04-06T12:19:48;4.80;;;4.40;;
19747;SDS011;10032;51.386;12.516;2023-04-06T12:22:13;6.10;;;4.57;;
19747;SDS011;10032;51.386;12.516;2023-04-06T12:24:39;5.32;;;4.82;;
19747;SDS011;10032;51.386;12.516;2023-04-06T12:27:04;4.95;;;4.32;;
19747;SDS011;10032;51.386;12.516;2023-04-06T12:29:30;4.93;;;4.53;;
19747;SDS011;10032;51.386;12.516;2023-04-06T12:31:56;8.07;;;4.65;;
19747;SDS011;10032;51.386;12.516;2023-04-06T12:34:21;4.25;;;3.85;;
19747;SDS011;10032;51.386;12.516;2023-04-06T12:36:47;4.53;;;4.13;;
19747;SDS011;10032;51.386;12.516;2023-04-06T12:39:12;5.22;;;4.50;;
19747;SDS011;10032;51.386;12.516;2023-04-06T12:41:38;5.38;;;4.88;;
19747;SDS011;10032;51.386;12.516;2023-04-06T12:44:06;4.40;;;4.00;;
19747;SDS011;10032;51.386;12.516;2023-04-06T12:46:31;4.85;;;4.03;;
19747;SDS011;10032;51.386;12.516;2023-04-06T12:48:57;6.20;;;4.82;;
19747;SDS011;10032;51.386;12.516;2023-04-06T12:51:24;4.85;;;4.00;;
19747;SDS011;10032;51.386;12.516;2023-04-06T12:53:52;5.03;;;4.53;;
19747;SDS011;10032;51.386;12.516;2023-04-06T12:56:18;3.95;;;3.60;;
19747;SDS011;10032;51.386;12.516;2023-04-06T12:58:44;4.90;;;4.45;;
19747;SDS011;10032;51.386;12.516;2023-04-06T13:01:10;5.25;;;4.43;;
19747;SDS011;10032;51.386;12.516;2023-04-06T13:03:39;4.32;;;3.92;;
19747;SDS011;10032;51.386;12.516;2023-04-06T13:06:05;4.80;;;4.38;;
19747;SDS011;10032;51.386;12.516;2023-04-06T13:08:31;5.97;;;4.68;;
19747;SDS011;10032;51.386;12.516;2023-04-06T13:10:56;5.65;;;4.65;;
19747;SDS011;10032;51.386;12.516;2023-04-06T13:13:23;5.38;;;4.20;;
19747;SDS011;10032;51.386;12.516;2023-04-06T13:15:50;5.20;;;4.70;;
19747;SDS011;10032;51.386;12.516;2023-04-06T13:18:16;5.35;;;4.40;;
19747;SDS011;10032;51.386;12.516;2023-04-06T13:20:42;5.45;;;4.95;;
19747;SDS011;10032;51.386;12.516;2023-04-06T13:23:08;4.40;;;4.00;;
19747;SDS011;10032;51.386;12.516;2023-04-06T13:25:34;5.13;;;4.18;;
19747;SDS011;10032;51.386;12.516;2023-04-06T13:28:00;4.38;;;3.97;;
19747;SDS011;10032;51.386;12.516;2023-04-06T13:30:25;4.68;;;4.28;;
19747;SDS011;10032;51.386;12.516;2023-04-06T13:32:51;8.45;;;4.65;;
19747;SDS011;10032;51.386;12.516;2023-04-06T13:35:17;5.65;;;4.13;;
19747;SDS011;10032;51.386;12.516;2023-04-06T13:37:42;4.63;;;4.00;;
19747;SDS011;10032;51.386;12.516;2023-04-06T13:40:09;4.53;;;4.13;;
19747;SDS011;10032;51.386;12.516;2023-04-06T13:42:35;5.40;;;4.28;;
19747;SDS011;10032;51.386;12.516;2023-04-06T13:45:01;5.13;;;4.38;;
19747;SDS011;10032;51.386;12.516;2023-04-06T13:47:27;5.63;;;4.25;;
19747;SDS011;10032;51.386;12.516;2023-04-06T13:49:52;5.07;;;4.07;;
19747;SDS011;10032;51.386;12.516;2023-04-06T13:52:19;4.78;;;4.10;;
19747;SDS011;10032;51.386;12.516;2023-04-06T13:54:44;6.25;;;4.25;;
19747;SDS011;10032;51.386;12.516;2023-04-06T13:57:10;4.82;;;4.43;;
19747;SDS011;10032;51.386;12.516;2023-04-06T13:59:36;4.20;;;3.80;;
19747;SDS011;10032;51.386;12.516;2023-04-06T14:02:02;4.70;;;4.30;;
19747;SDS011;10032;51.386;12.516;2023-04-06T14:04:29;4.80;;;4.30;;
19747;SDS011;10032;51.386;12.516;2023-04-06T14:06:55;5.47;;;4.65;;
19747;SDS011;10032;51.386;12.516;2023-04-06T14:09:20;4.78;;;3.90;;
19747;SDS011;10032;51.386;12.516;2023-04-06T14:11:46;5.25;;;4.70;;
19747;SDS011;10032;51.386;12.516;2023-04-06T14:14:11;7.53;;;4.63;;
19747;SDS011;10032;51.386;12.516;2023-04-06T14:16:37;4.75;;;4.32;;
19747;SDS011;10032;51.386;12.516;2023-04-06T14:19:03;4.65;;;4.15;;
19747;SDS011;10032;51.386;12.516;2023-04-06T14:21:28;7.00;;;4.45;;
19747;SDS011;10032;51.386;12.516;2023-04-06T14:23:54;8.43;;;5.05;;
19747;SDS011;10032;51.386;12.516;2023-04-06T14:26:20;5.43;;;4.43;;
19747;SDS011;10032;51.386;12.516;2023-04-06T14:28:45;5.10;;;4.40;;
19747;SDS011;10032;51.386;12.516;2023-04-06T14:31:14;4.88;;;4.35;;
19747;SDS011;10032;51.386;12.516;2023-04-06T14:33:41;4.25;;;3.85;;